sensor_id;sensor_type;location;lat;lon;timestamp;pressure;altitude;pressure_sealevel;temperature;humidity
22830;BME280;11581;51.250;6.778;2022-07-30T00:00:50;101233.25;;;22.20;46.95
22830;BME280;11581;51.250;6.778;2022-07-30T00:03:18;101234.09;;;22.14;47.08
22830;BME280;11581;51.250;6.778;2022-07-30T00:05:47;101239.34;;;22.09;48.05
22830;BME280;11581;51.250;6.778;2022-07-30T00:08:14;101203.84;;;21.78;47.33
22830;BME280;11581;51.250;6.778;2022-07-30T00:10:41;101229.72;;;22.00;47.59
22830;BME280;11581;51.250;6.778;2022-07-30T00:13:08;101200.50;;;21.76;47.99
22830;BME280;11581;51.250;6.778;2022-07-30T00:15:35;101162.88;;;21.53;47.58
22830;BME280;11581;51.250;6.778;2022-07-30T00:18:02;101205.94;;;21.76;47.58
22830;BME280;11581;51.250;6.778;2022-07-30T00:20:29;101222.22;;;21.82;47.82
22830;BME280;11581;51.250;6.778;2022-07-30T00:22:57;101219.91;;;21.79;48.51
22830;BME280;11581;51.250;6.778;2022-07-30T00:25:25;101223.25;;;21.75;48.15
22830;BME280;11581;51.250;6.778;2022-07-30T00:27:52;101220.94;;;21.72;48.50
22830;BME280;11581;51.250;6.778;2022-07-30T00:30:20;101191.69;;;21.48;48.61
22830;BME280;11581;51.250;6.778;2022-07-30T00:32:47;101224.72;;;21.64;48.80
22830;BME280;11581;51.250;6.778;2022-07-30T00:35:13;101067.63;;;20.64;48.90
22830;BME280;11581;51.250;6.778;2022-07-30T00:37:41;101221.34;;;21.56;48.92
22830;BME280;11581;51.250;6.778;2022-07-30T00:40:10;101172.44;;;21.17;49.87
22830;BME280;11581;51.250;6.778;2022-07-30T00:42:39;101226.97;;;21.48;49.88
22830;BME280;11581;51.250;6.778;2022-07-30T00:45:11;101192.72;;;21.21;49.25
22830;BME280;11581;51.250;6.778;2022-07-30T00:47:39;101225.50;;;21.39;49.54
22830;BME280;11581;51.250;6.778;2022-07-30T00:50:08;101225.09;;;21.35;50.37
22830;BME280;11581;51.250;6.778;2022-07-30T00:52:36;101220.03;;;21.26;49.79
22830;BME280;11581;51.250;6.778;2022-07-30T00:55:05;101205.84;;;21.11;50.28
22830;BME280;11581;51.250;6.778;2022-07-30T00:57:34;101233.19;;;21.22;50.80
22830;BME280;11581;51.250;6.778;2022-07-30T01:00:02;101235.47;;;21.19;50.72
22830;BME280;11581;51.250;6.778;2022-07-30T01:02:29;101224.59;;;21.06;50.78
22830;BME280;11581;51.250;6.778;2022-07-30T01:04:56;101232.97;;;21.11;51.00
22830;BME280;11581;51.250;6.778;2022-07-30T01:07:23;101219.13;;;20.99;51.38
22830;BME280;11581;51.250;6.778;2022-07-30T01:09:50;101233.38;;;21.08;51.61
22830;BME280;11581;51.250;6.778;2022-07-30T01:12:19;101234.59;;;21.05;52.35
22830;BME280;11581;51.250;6.778;2022-07-30T01:14:51;101241.25;;;21.03;52.28
22830;BME280;11581;51.250;6.778;2022-07-30T01:17:19;101230.19;;;20.98;51.42
22830;BME280;11581;51.250;6.778;2022-07-30T01:19:47;101177.72;;;20.71;52.40
22830;BME280;11581;51.250;6.778;2022-07-30T01:22:21;101229.56;;;20.96;52.65
22830;BME280;11581;51.250;6.778;2022-07-30T01:24:56;101216.53;;;20.85;53.10
22830;BME280;11581;51.250;6.778;2022-07-30T01:27:27;101236.41;;;20.92;52.99
22830;BME280;11581;51.250;6.778;2022-07-30T01:29:56;101229.50;;;20.89;52.03
22830;BME280;11581;51.250;6.778;2022-07-30T01:32:25;101237.81;;;20.88;52.07
22830;BME280;11581;51.250;6.778;2022-07-30T01:34:54;101175.13;;;20.50;52.65
22830;BME280;11581;51.250;6.778;2022-07-30T01:37:24;101176.38;;;20.48;52.24
22830;BME280;11581;51.250;6.778;2022-07-30T01:39:52;101208.50;;;20.57;52.08
22830;BME280;11581;51.250;6.778;2022-07-30T01:42:22;101239.06;;;20.79;53.07
22830;BME280;11581;51.250;6.778;2022-07-30T01:44:52;101221.06;;;20.65;53.39
22830;BME280;11581;51.250;6.778;2022-07-30T01:47:21;101237.78;;;20.75;53.52
22830;BME280;11581;51.250;6.778;2022-07-30T01:49:52;101216.44;;;20.59;53.75
22830;BME280;11581;51.250;6.778;2022-07-30T01:52:22;101244.84;;;20.69;53.56
22830;BME280;11581;51.250;6.778;2022-07-30T01:54:53;101193.59;;;20.34;53.74
22830;BME280;11581;51.250;6.778;2022-07-30T01:57:22;101250.66;;;20.66;52.97
22830;BME280;11581;51.250;6.778;2022-07-30T01:59:58;101258.38;;;20.63;54.19
22830;BME280;11581;51.250;6.778;2022-07-30T02:02:30;101251.47;;;20.60;53.00
22830;BME280;11581;51.250;6.778;2022-07-30T02:04:58;101251.84;;;20.57;53.52
22830;BME280;11581;51.250;6.778;2022-07-30T02:07:30;101131.16;;;19.80;54.74
22830;BME280;11581;51.250;6.778;2022-07-30T02:10:04;101253.50;;;20.52;54.35
22830;BME280;11581;51.250;6.778;2022-07-30T02:12:43;101240.53;;;20.41;54.41
22830;BME280;11581;51.250;6.778;2022-07-30T02:15:18;101224.19;;;20.28;54.45
22830;BME280;11581;51.250;6.778;2022-07-30T02:17:56;101253.88;;;20.42;54.04
22830;BME280;11581;51.250;6.778;2022-07-30T02:20:26;101242.97;;;20.29;53.64
22830;BME280;11581;51.250;6.778;2022-07-30T02:22:59;101261.94;;;20.36;54.14
22830;BME280;11581;51.250;6.778;2022-07-30T02:25:28;101263.38;;;20.32;53.86
22830;BME280;11581;51.250;6.778;2022-07-30T02:28:02;101269.19;;;20.29;54.77
22830;BME280;11581;51.250;6.778;2022-07-30T02:30:33;101270.44;;;20.26;54.41
22830;BME280;11581;51.250;6.778;2022-07-30T02:33:04;101261.84;;;20.23;54.10
22830;BME280;11581;51.250;6.778;2022-07-30T02:35:33;101239.56;;;20.00;53.84
22830;BME280;11581;51.250;6.778;2022-07-30T02:38:02;101267.03;;;20.18;53.93
22830;BME280;11581;51.250;6.778;2022-07-30T02:40:30;101267.44;;;20.15;53.94
22830;BME280;11581;51.250;6.778;2022-07-30T02:43:00;101273.25;;;20.12;54.53
22830;BME280;11581;51.250;6.778;2022-07-30T02:45:30;101232.78;;;19.82;54.53
22830;BME280;11581;51.250;6.778;2022-07-30T02:48:01;101269.75;;;19.97;54.87
22830;BME280;11581;51.250;6.778;2022-07-30T02:50:31;101215.28;;;19.57;54.47
22830;BME280;11581;51.250;6.778;2022-07-30T02:53:01;101277.88;;;19.97;54.55
22830;BME280;11581;51.250;6.778;2022-07-30T02:55:31;101220.31;;;19.60;55.29
22830;BME280;11581;51.250;6.778;2022-07-30T02:58:00;101275.94;;;19.90;54.79
22830;BME280;11581;51.250;6.778;2022-07-30T03:00:32;101257.91;;;19.76;55.33
22830;BME280;11581;51.250;6.778;2022-07-30T03:02:59;101242.84;;;19.67;54.72
22830;BME280;11581;51.250;6.778;2022-07-30T03:05:28;101273.56;;;19.81;54.95
22830;BME280;11581;51.250;6.778;2022-07-30T03:07:58;101269.41;;;19.78;54.86
22830;BME280;11581;51.250;6.778;2022-07-30T03:10:26;101248.13;;;19.54;55.19
22830;BME280;11581;51.250;6.778;2022-07-30T03:12:57;101246.91;;;19.57;55.38
22830;BME280;11581;51.250;6.778;2022-07-30T03:15:26;101216.31;;;19.35;55.24
22830;BME280;11581;51.250;6.778;2022-07-30T03:17:57;101278.69;;;19.69;55.94
22830;BME280;11581;51.250;6.778;2022-07-30T03:20:27;101274.47;;;19.67;55.62
22830;BME280;11581;51.250;6.778;2022-07-30T03:22:56;101276.56;;;19.65;55.90
22830;BME280;11581;51.250;6.778;2022-07-30T03:25:27;101276.75;;;19.63;55.55
22830;BME280;11581;51.250;6.778;2022-07-30T03:27:56;101286.91;;;19.61;55.92
22830;BME280;11581;51.250;6.778;2022-07-30T03:30:25;101284.59;;;19.58;55.77
22830;BME280;11581;51.250;6.778;2022-07-30T03:32:55;101198.50;;;19.05;55.90
22830;BME280;11581;51.250;6.778;2022-07-30T03:35:23;101233.97;;;19.31;56.06
22830;BME280;11581;51.250;6.778;2022-07-30T03:37:53;101271.97;;;19.44;55.78
22830;BME280;11581;51.250;6.778;2022-07-30T03:40:21;101279.03;;;19.45;55.88
22830;BME280;11581;51.250;6.778;2022-07-30T03:42:49;101282.22;;;19.49;56.14
22830;BME280;11581;51.250;6.778;2022-07-30T03:45:20;101285.09;;;19.47;56.36
22830;BME280;11581;51.250;6.778;2022-07-30T03:47:49;101290.72;;;19.46;56.72
22830;BME280;11581;51.250;6.778;2022-07-30T03:50:18;101289.34;;;19.35;57.01
22830;BME280;11581;51.250;6.778;2022-07-30T03:52:47;101291.28;;;19.41;56.96
22830;BME280;11581;51.250;6.778;2022-07-30T03:55:15;101307.50;;;19.41;56.92
22830;BME280;11581;51.250;6.778;2022-07-30T03:57:49;101282.66;;;19.31;56.69
22830;BME280;11581;51.250;6.778;2022-07-30T04:00:19;101298.75;;;19.39;56.88
22830;BME280;11581;51.250;6.778;2022-07-30T04:02:50;101283.38;;;19.25;57.16
22830;BME280;11581;51.250;6.778;2022-07-30T04:05:29;101297.09;;;19.24;57.71
22830;BME280;11581;51.250;6.778;2022-07-30T04:07:59;101309.13;;;19.21;57.25
22830;BME280;11581;51.250;6.778;2022-07-30T04:10:28;101312.41;;;19.31;57.69
22830;BME280;11581;51.250;6.778;2022-07-30T04:12:57;101303.63;;;19.29;57.66
22830;BME280;11581;51.250;6.778;2022-07-30T04:15:26;101317.34;;;19.28;57.66
22830;BME280;11581;51.250;6.778;2022-07-30T04:17:57;101320.22;;;19.26;58.70
22830;BME280;11581;51.250;6.778;2022-07-30T04:20:33;101327.69;;;19.24;58.84
22830;BME280;11581;51.250;6.778;2022-07-30T04:23:01;101316.31;;;19.14;58.04
22830;BME280;11581;51.250;6.778;2022-07-30T04:25:29;101332.44;;;19.22;58.30
22830;BME280;11581;51.250;6.778;2022-07-30T04:27:56;101325.44;;;19.13;58.23
22830;BME280;11581;51.250;6.778;2022-07-30T04:30:24;101331.38;;;19.23;58.54
22830;BME280;11581;51.250;6.778;2022-07-30T04:32:52;101299.28;;;18.99;58.79
22830;BME280;11581;51.250;6.778;2022-07-30T04:35:44;101328.44;;;19.18;59.18
22830;BME280;11581;51.250;6.778;2022-07-30T04:38:15;101325.06;;;19.16;58.83
22830;BME280;11581;51.250;6.778;2022-07-30T04:40:49;101336.78;;;19.23;59.71
22830;BME280;11581;51.250;6.778;2022-07-30T04:43:17;101354.06;;;19.37;59.42
22830;BME280;11581;51.250;6.778;2022-07-30T04:45:45;101346.41;;;19.40;59.50
22830;BME280;11581;51.250;6.778;2022-07-30T04:48:12;101300.72;;;19.16;59.36
22830;BME280;11581;51.250;6.778;2022-07-30T04:51:01;101302.06;;;19.20;60.44
22830;BME280;11581;51.250;6.778;2022-07-30T04:53:31;101355.13;;;19.57;59.80
22830;BME280;11581;51.250;6.778;2022-07-30T04:56:03;101361.66;;;19.62;60.56
22830;BME280;11581;51.250;6.778;2022-07-30T04:58:32;101366.94;;;19.70;60.67
22830;BME280;11581;51.250;6.778;2022-07-30T05:01:02;101345.28;;;19.70;60.22
22830;BME280;11581;51.250;6.778;2022-07-30T05:03:37;101360.00;;;19.82;60.16
22830;BME280;11581;51.250;6.778;2022-07-30T05:06:07;101368.88;;;19.98;60.71
22830;BME280;11581;51.250;6.778;2022-07-30T05:08:37;101369.41;;;20.08;60.20
22830;BME280;11581;51.250;6.778;2022-07-30T05:11:10;101353.97;;;20.08;60.31
22830;BME280;11581;51.250;6.778;2022-07-30T05:13:39;101365.03;;;20.28;60.52
22830;BME280;11581;51.250;6.778;2022-07-30T05:16:08;101371.38;;;20.41;60.50
22830;BME280;11581;51.250;6.778;2022-07-30T05:18:36;101376.50;;;20.57;60.60
22830;BME280;11581;51.250;6.778;2022-07-30T05:21:04;101376.66;;;20.77;60.13
22830;BME280;11581;51.250;6.778;2022-07-30T05:23:59;101380.34;;;20.97;59.38
22830;BME280;11581;51.250;6.778;2022-07-30T05:26:34;101362.69;;;21.07;58.37
22830;BME280;11581;51.250;6.778;2022-07-30T05:29:02;101383.59;;;21.20;57.95
22830;BME280;11581;51.250;6.778;2022-07-30T05:31:41;101379.47;;;21.24;57.52
22830;BME280;11581;51.250;6.778;2022-07-30T05:34:09;101377.56;;;21.24;57.37
22830;BME280;11581;51.250;6.778;2022-07-30T05:36:41;101373.19;;;21.23;57.54
22830;BME280;11581;51.250;6.778;2022-07-30T05:39:13;101339.69;;;20.97;58.27
22830;BME280;11581;51.250;6.778;2022-07-30T05:41:58;101381.28;;;21.17;57.52
22830;BME280;11581;51.250;6.778;2022-07-30T05:44:47;101373.94;;;21.04;58.09
22830;BME280;11581;51.250;6.778;2022-07-30T05:47:14;101393.59;;;21.13;58.03
22830;BME280;11581;51.250;6.778;2022-07-30T05:49:43;101330.31;;;20.72;58.11
22830;BME280;11581;51.250;6.778;2022-07-30T05:52:13;101396.28;;;21.06;58.35
22830;BME280;11581;51.250;6.778;2022-07-30T05:54:42;101401.91;;;21.05;59.12
22830;BME280;11581;51.250;6.778;2022-07-30T05:57:24;101371.31;;;20.90;58.63
22830;BME280;11581;51.250;6.778;2022-07-30T05:59:51;101401.91;;;21.05;58.66
22830;BME280;11581;51.250;6.778;2022-07-30T06:02:37;101346.19;;;20.75;58.59
22830;BME280;11581;51.250;6.778;2022-07-30T06:05:23;101408.59;;;21.09;58.66
22830;BME280;11581;51.250;6.778;2022-07-30T06:07:50;101397.50;;;21.04;58.94
22830;BME280;11581;51.250;6.778;2022-07-30T06:10:22;101407.16;;;21.13;59.36
22830;BME280;11581;51.250;6.778;2022-07-30T06:12:49;101381.75;;;20.93;59.07
22830;BME280;11581;51.250;6.778;2022-07-30T06:15:18;101419.03;;;21.12;58.99
22830;BME280;11581;51.250;6.778;2022-07-30T06:17:46;101415.69;;;21.10;59.36
22830;BME280;11581;51.250;6.778;2022-07-30T06:20:17;101414.88;;;21.09;59.30
22830;BME280;11581;51.250;6.778;2022-07-30T06:23:06;101371.03;;;20.78;58.97
22830;BME280;11581;51.250;6.778;2022-07-30T06:26:03;101286.50;;;20.28;59.08
22830;BME280;11581;51.250;6.778;2022-07-30T06:28:30;101402.50;;;21.00;59.21
22830;BME280;11581;51.250;6.778;2022-07-30T06:30:57;101400.19;;;20.97;59.00
22830;BME280;11581;51.250;6.778;2022-07-30T06:33:27;101402.03;;;20.97;59.25
22830;BME280;11581;51.250;6.778;2022-07-30T06:35:54;101408.75;;;21.01;59.06
22830;BME280;11581;51.250;6.778;2022-07-30T06:38:25;101361.63;;;20.74;58.95
22830;BME280;11581;51.250;6.778;2022-07-30T06:40:58;101334.59;;;20.53;58.87
22830;BME280;11581;51.250;6.778;2022-07-30T06:43:41;101431.75;;;21.11;59.51
22830;BME280;11581;51.250;6.778;2022-07-30T06:46:35;101430.72;;;21.12;58.90
22830;BME280;11581;51.250;6.778;2022-07-30T06:49:03;101434.91;;;21.15;59.21
22830;BME280;11581;51.250;6.778;2022-07-30T06:51:31;101409.00;;;21.06;59.18
22830;BME280;11581;51.250;6.778;2022-07-30T06:53:59;101435.19;;;21.26;58.96
22830;BME280;11581;51.250;6.778;2022-07-30T06:56:47;101440.03;;;21.37;58.84
22830;BME280;11581;51.250;6.778;2022-07-30T06:59:19;101428.38;;;21.43;58.64
22830;BME280;11581;51.250;6.778;2022-07-30T07:02:05;101437.22;;;21.58;58.48
22830;BME280;11581;51.250;6.778;2022-07-30T07:04:51;101447.78;;;21.81;58.27
22830;BME280;11581;51.250;6.778;2022-07-30T07:07:20;101413.94;;;21.77;58.13
22830;BME280;11581;51.250;6.778;2022-07-30T07:09:48;101448.06;;;22.19;57.69
22830;BME280;11581;51.250;6.778;2022-07-30T07:12:36;101433.69;;;22.31;57.07
22830;BME280;11581;51.250;6.778;2022-07-30T07:15:07;101445.44;;;22.64;56.46
22830;BME280;11581;51.250;6.778;2022-07-30T07:17:37;101455.06;;;22.86;56.15
22830;BME280;11581;51.250;6.778;2022-07-30T07:20:05;101374.34;;;22.54;55.57
22830;BME280;11581;51.250;6.778;2022-07-30T07:22:45;101370.97;;;22.85;55.45
22830;BME280;11581;51.250;6.778;2022-07-30T07:25:12;101450.50;;;23.63;56.03
22830;BME280;11581;51.250;6.778;2022-07-30T07:27:40;101424.44;;;23.80;56.25
22830;BME280;11581;51.250;6.778;2022-07-30T07:30:12;101416.81;;;24.33;53.35
22830;BME280;11581;51.250;6.778;2022-07-30T07:32:39;101373.81;;;24.60;52.97
22830;BME280;11581;51.250;6.778;2022-07-30T07:35:08;101453.69;;;25.52;50.89
22830;BME280;11581;51.250;6.778;2022-07-30T07:37:39;101431.09;;;25.63;49.72
22830;BME280;11581;51.250;6.778;2022-07-30T07:40:09;101458.28;;;26.17;49.31
22830;BME280;11581;51.250;6.778;2022-07-30T07:42:40;101457.81;;;26.50;49.23
22830;BME280;11581;51.250;6.778;2022-07-30T07:45:12;101459.53;;;26.85;48.56
22830;BME280;11581;51.250;6.778;2022-07-30T07:47:48;101460.53;;;27.25;47.43
22830;BME280;11581;51.250;6.778;2022-07-30T07:50:29;101458.41;;;27.67;46.90
22830;BME280;11581;51.250;6.778;2022-07-30T07:52:56;101451.97;;;28.13;46.83
22830;BME280;11581;51.250;6.778;2022-07-30T07:55:23;101393.31;;;28.30;46.34
22830;BME280;11581;51.250;6.778;2022-07-30T07:57:50;101433.16;;;29.37;45.65
22830;BME280;11581;51.250;6.778;2022-07-30T08:00:21;101455.25;;;30.33;41.71
22830;BME280;11581;51.250;6.778;2022-07-30T08:02:49;101453.50;;;31.22;42.49
22830;BME280;11581;51.250;6.778;2022-07-30T08:05:17;101416.88;;;31.83;40.60
22830;BME280;11581;51.250;6.778;2022-07-30T08:08:10;101446.81;;;33.06;38.75
22830;BME280;11581;51.250;6.778;2022-07-30T08:11:04;101441.53;;;33.98;37.43
22830;BME280;11581;51.250;6.778;2022-07-30T08:13:51;101409.78;;;34.63;36.08
22830;BME280;11581;51.250;6.778;2022-07-30T08:16:38;101433.16;;;35.61;33.29
22830;BME280;11581;51.250;6.778;2022-07-30T08:19:36;101453.47;;;36.55;33.23
22830;BME280;11581;51.250;6.778;2022-07-30T08:22:14;101446.56;;;37.30;31.32
22830;BME280;11581;51.250;6.778;2022-07-30T08:24:43;101446.34;;;37.94;30.33
22830;BME280;11581;51.250;6.778;2022-07-30T08:27:10;101446.06;;;38.53;29.23
22830;BME280;11581;51.250;6.778;2022-07-30T08:29:37;101418.19;;;38.97;28.28
22830;BME280;11581;51.250;6.778;2022-07-30T08:32:06;101439.78;;;39.61;26.80
22830;BME280;11581;51.250;6.778;2022-07-30T08:34:36;101442.50;;;40.18;26.82
22830;BME280;11581;51.250;6.778;2022-07-30T08:37:03;101439.72;;;40.69;25.97
22830;BME280;11581;51.250;6.778;2022-07-30T08:39:31;101395.78;;;40.78;25.08
22830;BME280;11581;51.250;6.778;2022-07-30T08:42:02;101463.63;;;41.58;24.46
22830;BME280;11581;51.250;6.778;2022-07-30T08:44:32;101472.13;;;42.00;23.02
22830;BME280;11581;51.250;6.778;2022-07-30T08:47:03;101370.38;;;41.87;23.18
22830;BME280;11581;51.250;6.778;2022-07-30T08:49:53;101448.59;;;42.74;21.82
22830;BME280;11581;51.250;6.778;2022-07-30T08:52:27;101441.25;;;42.94;22.37
22830;BME280;11581;51.250;6.778;2022-07-30T08:54:58;101200.38;;;41.67;21.76
22830;BME280;11581;51.250;6.778;2022-07-30T08:57:25;101421.81;;;43.33;21.28
22830;BME280;11581;51.250;6.778;2022-07-30T08:59:57;101456.41;;;43.73;20.88
22830;BME280;11581;51.250;6.778;2022-07-30T09:02:26;101413.00;;;43.71;20.72
22830;BME280;11581;51.250;6.778;2022-07-30T09:05:13;101454.31;;;44.07;19.90
22830;BME280;11581;51.250;6.778;2022-07-30T09:07:40;101397.22;;;43.91;19.96
22830;BME280;11581;51.250;6.778;2022-07-30T09:10:12;101449.28;;;44.40;20.11
22830;BME280;11581;51.250;6.778;2022-07-30T09:12:43;101424.06;;;44.43;19.38
22830;BME280;11581;51.250;6.778;2022-07-30T09:15:11;101421.06;;;44.64;18.81
22830;BME280;11581;51.250;6.778;2022-07-30T09:17:48;101404.41;;;44.71;18.21
22830;BME280;11581;51.250;6.778;2022-07-30T09:20:20;101383.25;;;44.77;17.72
22830;BME280;11581;51.250;6.778;2022-07-30T09:22:50;101455.81;;;45.30;17.59
22830;BME280;11581;51.250;6.778;2022-07-30T09:25:37;101448.75;;;45.36;17.53
22830;BME280;11581;51.250;6.778;2022-07-30T09:28:28;101454.47;;;45.39;17.19
22830;BME280;11581;51.250;6.778;2022-07-30T09:31:14;101457.09;;;45.48;17.46
22830;BME280;11581;51.250;6.778;2022-07-30T09:34:00;101446.81;;;45.55;17.39
22830;BME280;11581;51.250;6.778;2022-07-30T09:36:47;101430.94;;;45.47;16.82
22830;BME280;11581;51.250;6.778;2022-07-30T09:39:30;101452.53;;;45.59;16.56
22830;BME280;11581;51.250;6.778;2022-07-30T09:42:26;101405.16;;;45.30;16.21
22830;BME280;11581;51.250;6.778;2022-07-30T09:45:05;101454.72;;;45.50;16.39
22830;BME280;11581;51.250;6.778;2022-07-30T09:47:33;101448.75;;;45.36;16.49
22830;BME280;11581;51.250;6.778;2022-07-30T09:50:06;101453.19;;;45.21;15.94
22830;BME280;11581;51.250;6.778;2022-07-30T09:52:37;101455.00;;;45.14;16.09
22830;BME280;11581;51.250;6.778;2022-07-30T09:55:05;101452.91;;;45.11;16.61
22830;BME280;11581;51.250;6.778;2022-07-30T09:57:34;101456.63;;;45.15;16.30
22830;BME280;11581;51.250;6.778;2022-07-30T10:00:16;101457.16;;;45.20;16.46
22830;BME280;11581;51.250;6.778;2022-07-30T10:02:56;101457.44;;;45.31;15.84
22830;BME280;11581;51.250;6.778;2022-07-30T10:06:04;101463.38;;;45.41;15.30
22830;BME280;11581;51.250;6.778;2022-07-30T10:08:50;101453.75;;;45.42;15.42
22830;BME280;11581;51.250;6.778;2022-07-30T10:11:19;101417.75;;;45.20;15.12
22830;BME280;11581;51.250;6.778;2022-07-30T10:13:53;101443.81;;;45.33;14.61
22830;BME280;11581;51.250;6.778;2022-07-30T10:16:23;101443.19;;;45.24;15.06
22830;BME280;11581;51.250;6.778;2022-07-30T10:18:53;101444.94;;;45.13;14.94
22830;BME280;11581;51.250;6.778;2022-07-30T10:21:35;101445.56;;;45.06;14.51
22830;BME280;11581;51.250;6.778;2022-07-30T10:24:22;101424.09;;;44.86;14.51
22830;BME280;11581;51.250;6.778;2022-07-30T10:27:19;101439.06;;;44.75;14.75
22830;BME280;11581;51.250;6.778;2022-07-30T10:30:04;101440.31;;;44.62;14.76
22830;BME280;11581;51.250;6.778;2022-07-30T10:32:31;101219.28;;;43.19;15.08
22830;BME280;11581;51.250;6.778;2022-07-30T10:34:58;101382.94;;;44.23;14.92
22830;BME280;11581;51.250;6.778;2022-07-30T10:37:27;101427.19;;;44.54;14.52
22830;BME280;11581;51.250;6.778;2022-07-30T10:40:03;101446.13;;;44.69;13.98
22830;BME280;11581;51.250;6.778;2022-07-30T10:43:01;101445.41;;;44.72;14.46
22830;BME280;11581;51.250;6.778;2022-07-30T10:45:40;101455.13;;;44.74;14.13
22830;BME280;11581;51.250;6.778;2022-07-30T10:48:12;101444.16;;;44.85;14.31
22830;BME280;11581;51.250;6.778;2022-07-30T10:50:49;101443.97;;;44.93;13.96
22830;BME280;11581;51.250;6.778;2022-07-30T10:53:37;101440.56;;;45.00;14.38
22830;BME280;11581;51.250;6.778;2022-07-30T10:56:24;101324.66;;;44.36;14.48
22830;BME280;11581;51.250;6.778;2022-07-30T10:59:04;101421.78;;;45.04;13.74
22830;BME280;11581;51.250;6.778;2022-07-30T11:02:06;101440.22;;;45.17;14.19
22830;BME280;11581;51.250;6.778;2022-07-30T11:04:33;101434.84;;;45.12;13.70
22830;BME280;11581;51.250;6.778;2022-07-30T11:07:26;101425.31;;;45.01;14.01
22830;BME280;11581;51.250;6.778;2022-07-30T11:09:55;101425.53;;;44.96;13.49
22830;BME280;11581;51.250;6.778;2022-07-30T11:12:53;101389.75;;;44.65;14.53
22830;BME280;11581;51.250;6.778;2022-07-30T11:15:22;101424.81;;;44.83;13.82
22830;BME280;11581;51.250;6.778;2022-07-30T11:18:03;101431.63;;;44.82;13.37
22830;BME280;11581;51.250;6.778;2022-07-30T11:20:32;101422.53;;;44.89;13.68
22830;BME280;11581;51.250;6.778;2022-07-30T11:23:11;101411.41;;;44.92;13.93
22830;BME280;11581;51.250;6.778;2022-07-30T11:25:59;101423.50;;;45.08;14.02
22830;BME280;11581;51.250;6.778;2022-07-30T11:28:38;101405.31;;;45.06;13.44
22830;BME280;11581;51.250;6.778;2022-07-30T11:31:25;101413.97;;;45.13;13.73
22830;BME280;11581;51.250;6.778;2022-07-30T11:34:26;101423.69;;;45.15;13.92
22830;BME280;11581;51.250;6.778;2022-07-30T11:37:19;101414.59;;;45.22;14.12
22830;BME280;11581;51.250;6.778;2022-07-30T11:40:09;101412.13;;;45.20;14.38
22830;BME280;11581;51.250;6.778;2022-07-30T11:42:38;101411.88;;;45.10;13.67
22830;BME280;11581;51.250;6.778;2022-07-30T11:45:25;101399.53;;;44.99;14.03
22830;BME280;11581;51.250;6.778;2022-07-30T11:47:56;101387.97;;;44.88;14.25
22830;BME280;11581;51.250;6.778;2022-07-30T11:50:26;101417.81;;;44.93;13.88
22830;BME280;11581;51.250;6.778;2022-07-30T11:52:56;101410.75;;;44.83;13.51
22830;BME280;11581;51.250;6.778;2022-07-30T11:55:25;101422.78;;;44.68;13.65
22830;BME280;11581;51.250;6.778;2022-07-30T11:57:53;101412.22;;;44.50;13.70
22830;BME280;11581;51.250;6.778;2022-07-30T12:00:22;101414.41;;;44.29;13.38
22830;BME280;11581;51.250;6.778;2022-07-30T12:02:50;101406.72;;;44.14;13.66
22830;BME280;11581;51.250;6.778;2022-07-30T12:05:26;101367.38;;;43.74;13.61
22830;BME280;11581;51.250;6.778;2022-07-30T12:07:56;101347.84;;;43.41;14.06
22830;BME280;11581;51.250;6.778;2022-07-30T12:10:24;101371.28;;;43.33;14.07
22830;BME280;11581;51.250;6.778;2022-07-30T12:12:51;101402.72;;;43.39;14.32
22830;BME280;11581;51.250;6.778;2022-07-30T12:15:31;101378.28;;;43.03;14.41
22830;BME280;11581;51.250;6.778;2022-07-30T12:17:58;101398.53;;;43.09;14.27
22830;BME280;11581;51.250;6.778;2022-07-30T12:20:26;101393.34;;;42.99;14.20
22830;BME280;11581;51.250;6.778;2022-07-30T12:22:53;101393.47;;;42.90;14.47
22830;BME280;11581;51.250;6.778;2022-07-30T12:25:20;101374.16;;;42.77;14.17
22830;BME280;11581;51.250;6.778;2022-07-30T12:27:48;101385.38;;;42.77;14.63
22830;BME280;11581;51.250;6.778;2022-07-30T12:30:16;101387.44;;;42.68;14.25
22830;BME280;11581;51.250;6.778;2022-07-30T12:32:45;101384.91;;;42.54;14.25
22830;BME280;11581;51.250;6.778;2022-07-30T12:35:12;101390.25;;;42.35;14.91
22830;BME280;11581;51.250;6.778;2022-07-30T12:37:40;101262.09;;;41.29;14.51
22830;BME280;11581;51.250;6.778;2022-07-30T12:40:08;101380.81;;;41.78;14.84
22830;BME280;11581;51.250;6.778;2022-07-30T12:42:36;101372.47;;;41.49;15.13
22830;BME280;11581;51.250;6.778;2022-07-30T12:45:05;101376.06;;;41.20;15.82
22830;BME280;11581;51.250;6.778;2022-07-30T12:47:35;101383.69;;;40.94;15.89
22830;BME280;11581;51.250;6.778;2022-07-30T12:50:15;101381.34;;;40.59;15.68
22830;BME280;11581;51.250;6.778;2022-07-30T12:52:47;101393.50;;;40.54;15.92
22830;BME280;11581;51.250;6.778;2022-07-30T12:55:16;101390.91;;;40.41;16.05
22830;BME280;11581;51.250;6.778;2022-07-30T12:57:54;101378.94;;;40.23;16.38
22830;BME280;11581;51.250;6.778;2022-07-30T13:00:22;101384.50;;;40.15;16.59
22830;BME280;11581;51.250;6.778;2022-07-30T13:02:49;101329.13;;;39.74;16.82
22830;BME280;11581;51.250;6.778;2022-07-30T13:05:41;101349.19;;;39.84;16.89
22830;BME280;11581;51.250;6.778;2022-07-30T13:08:08;101274.06;;;39.23;16.73
22830;BME280;11581;51.250;6.778;2022-07-30T13:10:36;101377.13;;;39.93;16.88
22830;BME280;11581;51.250;6.778;2022-07-30T13:13:04;101367.56;;;39.85;16.98
22830;BME280;11581;51.250;6.778;2022-07-30T13:15:31;101337.00;;;39.63;17.28
22830;BME280;11581;51.250;6.778;2022-07-30T13:18:00;101360.34;;;39.67;17.60
22830;BME280;11581;51.250;6.778;2022-07-30T13:20:28;101380.53;;;39.73;17.06